Time;durP1;ratioP1;P1;durP2;ratioP2;P2;SDS_P1;SDS_P2;PMS_P1;PMS_P2;Temp;Humidity;BMP_temperature;BMP_pressure;BME280_temperature;BME280_humidity;BME280_pressure;Samples;Min_cycle;Max_cycle;Signal;HPM_P1;HPM_P2
2024/01/12 00:01:05;;;;;;;212.53;22.37;;;;;;;;;;5030741;28;20017;-64
2024/01/12 00:03:31;;;;;;;288.57;25.17;;;;;;;;;;5031077;28;20026;-64
2024/01/12 00:05:56;;;;;;;163.43;21.63;;;;;;;;;;5031200;28;20033;-64
2024/01/12 00:08:22;;;;;;;165.60;21.67;;;;;;;;;;5031421;28;20103;-64
2024/01/12 00:10:47;;;;;;;115.30;18.90;;;;;;;;;;5030738;28;20025;-64
2024/01/12 00:13:12;;;;;;;203.13;23.47;;;;;;;;;;5031232;28;20678;-64
2024/01/12 00:15:37;;;;;;;166.80;21.93;;;;;;;;;;5028804;28;20014;-64
2024/01/12 00:18:03;;;;;;;232.37;24.03;;;;;;;;;;5030853;28;20026;-64
2024/01/12 00:20:28;;;;;;;211.73;23.33;;;;;;;;;;5030850;28;20046;-64
2024/01/12 00:22:56;;;;;;;218.97;24.17;;;;;;;;;;5031123;28;20056;-64
2024/01/12 00:25:21;;;;;;;238.33;24.77;;;;;;;;;;5030479;28;20032;-64
2024/01/12 00:27:46;;;;;;;167.63;23.57;;;;;;;;;;5030244;28;20022;-64
2024/01/12 00:30:12;;;;;;;215.13;25.90;;;;;;;;;;5030550;28;20100;-64
2024/01/12 00:32:38;;;;;;;240.60;25.60;;;;;;;;;;5030543;28;20029;-64
2024/01/12 00:35:03;;;;;;;188.93;22.90;;;;;;;;;;5029496;28;20022;-64
2024/01/12 00:37:28;;;;;;;184.43;24.60;;;;;;;;;;5031030;28;20033;-64
2024/01/12 00:39:54;;;;;;;158.83;22.47;;;;;;;;;;5030756;28;20474;-62
2024/01/12 00:42:19;;;;;;;220.90;26.40;;;;;;;;;;5030575;28;20394;-62
2024/01/12 00:44:45;;;;;;;201.23;24.80;;;;;;;;;;5030362;28;20094;-62
2024/01/12 00:47:11;;;;;;;180.60;26.93;;;;;;;;;;5030751;28;20064;-62
2024/01/12 00:49:36;;;;;;;123.97;21.47;;;;;;;;;;5030484;28;20014;-62
2024/01/12 00:52:01;;;;;;;133.77;23.13;;;;;;;;;;5029831;28;20025;-62
2024/01/12 00:54:26;;;;;;;181.80;25.03;;;;;;;;;;5030280;28;20024;-62
2024/01/12 00:56:55;;;;;;;162.57;24.60;;;;;;;;;;5030128;28;20054;-62
2024/01/12 00:59:22;;;;;;;125.83;21.37;;;;;;;;;;5029821;28;20021;-62
2024/01/12 01:01:47;;;;;;;145.67;22.53;;;;;;;;;;5029414;28;20064;-62
2024/01/12 01:04:12;;;;;;;138.83;23.10;;;;;;;;;;5029950;28;20108;-62
2024/01/12 01:06:38;;;;;;;181.37;23.00;;;;;;;;;;5030407;28;20021;-62
2024/01/12 01:09:03;;;;;;;176.53;23.10;;;;;;;;;;5030543;28;20025;-62
2024/01/12 01:11:28;;;;;;;169.57;23.97;;;;;;;;;;5030328;28;20061;-62
2024/01/12 01:13:53;;;;;;;134.13;22.73;;;;;;;;;;5030225;28;20374;-62
2024/01/12 01:16:20;;;;;;;143.87;23.47;;;;;;;;;;5030093;28;20017;-62
2024/01/12 01:18:45;;;;;;;169.07;24.17;;;;;;;;;;5029648;28;20017;-62
2024/01/12 01:21:10;;;;;;;115.37;22.90;;;;;;;;;;5029526;28;20033;-62
2024/01/12 01:23:36;;;;;;;109.13;22.80;;;;;;;;;;5029703;28;20021;-62
2024/01/12 01:26:01;;;;;;;183.87;26.40;;;;;;;;;;5029924;28;20037;-62
2024/01/12 01:28:26;;;;;;;206.53;26.67;;;;;;;;;;5029621;28;20079;-62
2024/01/12 01:30:52;;;;;;;196.13;26.73;;;;;;;;;;5029803;28;20044;-62
2024/01/12 01:33:17;;;;;;;173.03;25.97;;;;;;;;;;5029145;28;20013;-62
2024/01/12 01:35:42;;;;;;;166.57;26.77;;;;;;;;;;5029887;28;20022;-63
2024/01/12 01:38:07;;;;;;;105.27;21.50;;;;;;;;;;5030221;28;20456;-62
2024/01/12 01:40:33;;;;;;;95.83;21.43;;;;;;;;;;5029468;28;20060;-62
2024/01/12 01:43:06;;;;;;;83.87;21.53;;;;;;;;;;5029083;28;20033;-62
2024/01/12 01:45:33;;;;;;;80.37;20.97;;;;;;;;;;5027293;28;20378;-62
2024/01/12 01:47:59;;;;;;;77.90;20.93;;;;;;;;;;5030151;28;20017;-61
2024/01/12 01:50:24;;;;;;;85.70;21.43;;;;;;;;;;5030161;28;20028;-62
2024/01/12 01:52:49;;;;;;;75.93;21.30;;;;;;;;;;5029408;28;20465;-62
2024/01/12 01:55:15;;;;;;;75.87;21.10;;;;;;;;;;5029602;28;20045;-62
2024/01/12 01:57:42;;;;;;;80.97;22.27;;;;;;;;;;5029761;28;20440;-62
2024/01/12 02:00:08;;;;;;;78.23;22.17;;;;;;;;;;5030063;28;20041;-62
2024/01/12 02:02:34;;;;;;;88.93;23.77;;;;;;;;;;5031630;28;20121;-62
2024/01/12 02:05:00;;;;;;;81.50;23.17;;;;;;;;;;5031917;28;20101;-62
2024/01/12 02:07:25;;;;;;;78.17;21.50;;;;;;;;;;5033784;28;20018;-62
2024/01/12 02:09:51;;;;;;;81.37;22.20;;;;;;;;;;5032431;28;21508;-62
2024/01/12 02:12:16;;;;;;;93.60;23.17;;;;;;;;;;5033757;28;20021;-62
2024/01/12 02:14:42;;;;;;;91.33;23.53;;;;;;;;;;5032517;28;20021;-62
2024/01/12 02:17:07;;;;;;;88.87;22.87;;;;;;;;;;5033473;28;20101;-62
2024/01/12 02:19:32;;;;;;;87.20;21.30;;;;;;;;;;5033251;28;20129;-62
2024/01/12 02:21:57;;;;;;;80.43;21.40;;;;;;;;;;5033333;28;20064;-62
2024/01/12 02:24:24;;;;;;;89.40;21.17;;;;;;;;;;5033485;28;20038;-62
2024/01/12 02:26:49;;;;;;;88.33;23.30;;;;;;;;;;5032330;28;20459;-62
2024/01/12 02:29:14;;;;;;;84.97;22.67;;;;;;;;;;5033389;28;20432;-63
2024/01/12 02:31:40;;;;;;;85.03;21.80;;;;;;;;;;5033409;28;20032;-62
2024/01/12 02:34:05;;;;;;;82.23;22.07;;;;;;;;;;5033470;28;20021;-63
2024/01/12 02:36:30;;;;;;;82.33;22.47;;;;;;;;;;5033039;28;20041;-62
2024/01/12 02:38:56;;;;;;;82.77;21.17;;;;;;;;;;5033095;28;20021;-62
2024/01/12 02:41:21;;;;;;;86.30;21.53;;;;;;;;;;5033240;28;20037;-62
2024/01/12 02:43:48;;;;;;;77.13;21.17;;;;;;;;;;5032160;28;20036;-62
2024/01/12 02:46:13;;;;;;;78.50;22.10;;;;;;;;;;5032144;28;20029;-63
2024/01/12 02:48:38;;;;;;;86.37;23.50;;;;;;;;;;5033221;28;20036;-62
2024/01/12 02:51:04;;;;;;;89.00;23.33;;;;;;;;;;5032760;28;20033;-61
2024/01/12 02:53:29;;;;;;;75.93;21.07;;;;;;;;;;5032651;28;20466;-62
2024/01/12 02:55:55;;;;;;;83.57;21.37;;;;;;;;;;5032581;28;20017;-62
2024/01/12 02:58:20;;;;;;;81.80;22.43;;;;;;;;;;5032416;28;20017;-62
2024/01/12 03:00:45;;;;;;;81.30;22.10;;;;;;;;;;5032490;28;20428;-62
2024/01/12 03:03:11;;;;;;;79.63;21.37;;;;;;;;;;5032449;28;20075;-62
2024/01/12 03:05:36;;;;;;;86.53;21.83;;;;;;;;;;5032432;28;20088;-62
2024/01/12 03:08:01;;;;;;;75.57;21.33;;;;;;;;;;5032486;28;20116;-62
2024/01/12 03:10:26;;;;;;;79.30;20.60;;;;;;;;;;5032846;28;20021;-65
2024/01/12 03:12:52;;;;;;;82.90;20.90;;;;;;;;;;5032044;28;20018;-65
2024/01/12 03:15:17;;;;;;;78.00;20.00;;;;;;;;;;5030732;28;20417;-65
2024/01/12 03:17:42;;;;;;;84.07;22.03;;;;;;;;;;5032172;28;20051;-65
2024/01/12 03:20:08;;;;;;;73.13;20.20;;;;;;;;;;5032202;28;20053;-64
2024/01/12 03:22:34;;;;;;;75.33;19.93;;;;;;;;;;5032244;28;20036;-65
2024/01/12 03:24:59;;;;;;;70.97;21.30;;;;;;;;;;5032130;28;20418;-65
2024/01/12 03:27:25;;;;;;;80.23;21.97;;;;;;;;;;5031263;28;20048;-65
2024/01/12 03:29:50;;;;;;;80.20;21.03;;;;;;;;;;5031577;28;20458;-65
2024/01/12 03:32:15;;;;;;;84.30;21.60;;;;;;;;;;5031595;28;20378;-65
2024/01/12 03:34:40;;;;;;;81.53;21.33;;;;;;;;;;5031129;28;20286;-65
2024/01/12 03:37:06;;;;;;;81.13;20.47;;;;;;;;;;5031509;28;20017;-65
2024/01/12 03:39:31;;;;;;;81.13;21.43;;;;;;;;;;5031520;28;20101;-65
2024/01/12 03:41:56;;;;;;;82.60;21.20;;;;;;;;;;5030538;28;20438;-64
2024/01/12 03:44:21;;;;;;;69.23;20.00;;;;;;;;;;5031410;28;20436;-65
2024/01/12 03:46:47;;;;;;;86.77;20.57;;;;;;;;;;5031600;28;20021;-65
2024/01/12 03:49:12;;;;;;;93.83;22.57;;;;;;;;;;5031822;28;20062;-65
2024/01/12 03:51:37;;;;;;;94.80;21.33;;;;;;;;;;5029396;28;20030;-65
2024/01/12 03:54:02;;;;;;;90.70;21.40;;;;;;;;;;5031383;28;20488;-65
2024/01/12 03:56:28;;;;;;;86.33;20.03;;;;;;;;;;5031600;28;20017;-65
2024/01/12 03:58:53;;;;;;;77.27;19.83;;;;;;;;;;5030419;28;20026;-65
2024/01/12 04:01:21;;;;;;;85.67;20.63;;;;;;;;;;5030356;28;20053;-65
2024/01/12 04:03:46;;;;;;;88.57;19.30;;;;;;;;;;5029242;28;20036;-65
2024/01/12 04:06:12;;;;;;;89.80;19.57;;;;;;;;;;5031226;28;20013;-65
2024/01/12 04:08:37;;;;;;;80.07;18.70;;;;;;;;;;5030704;28;20021;-65
2024/01/12 04:11:03;;;;;;;78.90;19.80;;;;;;;;;;5029941;28;20013;-64
2024/01/12 04:13:28;;;;;;;82.87;18.33;;;;;;;;;;5029374;28;20028;-65
2024/01/12 04:15:53;;;;;;;93.33;19.37;;;;;;;;;;5030997;28;20072;-65
2024/01/12 04:18:18;;;;;;;79.03;18.67;;;;;;;;;;5031191;28;20025;-64
2024/01/12 04:20:44;;;;;;;80.67;18.93;;;;;;;;;;5029670;28;20048;-65
2024/01/12 04:23:09;;;;;;;86.43;19.30;;;;;;;;;;5030940;28;20530;-65
2024/01/12 04:25:34;;;;;;;74.37;18.50;;;;;;;;;;5029970;28;20398;-65
2024/01/12 04:27:59;;;;;;;82.00;18.90;;;;;;;;;;5029938;28;20024;-65
2024/01/12 04:30:25;;;;;;;75.13;18.00;;;;;;;;;;5031157;28;20021;-65
2024/01/12 04:32:50;;;;;;;75.10;19.90;;;;;;;;;;5031159;28;20021;-65
2024/01/12 04:35:15;;;;;;;76.83;19.07;;;;;;;;;;5030503;28;20017;-65
2024/01/12 04:37:40;;;;;;;81.93;19.23;;;;;;;;;;5030905;28;20027;-65
2024/01/12 04:40:07;;;;;;;82.90;18.43;;;;;;;;;;5029270;28;20065;-65
2024/01/12 04:42:32;;;;;;;83.53;19.00;;;;;;;;;;5030019;28;20045;-65
2024/01/12 04:44:57;;;;;;;90.07;20.30;;;;;;;;;;5031517;28;20040;-65
2024/01/12 04:47:22;;;;;;;72.57;18.93;;;;;;;;;;5030546;28;20021;-65
2024/01/12 04:49:47;;;;;;;93.03;18.83;;;;;;;;;;5030299;28;20045;-65
2024/01/12 04:52:13;;;;;;;75.80;18.73;;;;;;;;;;5030365;28;20025;-65
2024/01/12 04:54:38;;;;;;;69.53;19.43;;;;;;;;;;5030642;28;20030;-65
2024/01/12 04:57:03;;;;;;;62.67;17.57;;;;;;;;;;5028481;28;20034;-65
2024/01/12 04:59:29;;;;;;;62.20;18.57;;;;;;;;;;5029699;28;20013;-65
2024/01/12 05:01:54;;;;;;;70.53;16.80;;;;;;;;;;5029985;28;20036;-64
2024/01/12 05:04:19;;;;;;;64.30;16.90;;;;;;;;;;5029923;28;20013;-65
2024/01/12 05:06:44;;;;;;;64.77;18.03;;;;;;;;;;5030550;28;20034;-65
2024/01/12 05:09:10;;;;;;;56.67;16.37;;;;;;;;;;5028769;28;20017;-65
2024/01/12 05:11:36;;;;;;;56.50;15.97;;;;;;;;;;5026875;28;20028;-65
2024/01/12 05:14:01;;;;;;;57.60;15.97;;;;;;;;;;5030108;28;20049;-65
2024/01/12 05:16:26;;;;;;;65.73;16.03;;;;;;;;;;5029376;28;20017;-65
2024/01/12 05:18:51;;;;;;;54.97;16.30;;;;;;;;;;5029630;28;20501;-65
2024/01/12 05:21:17;;;;;;;53.17;16.33;;;;;;;;;;5029565;28;20026;-65
2024/01/12 05:23:44;;;;;;;49.47;16.27;;;;;;;;;;5029980;28;20108;-65
2024/01/12 05:26:09;;;;;;;67.13;16.70;;;;;;;;;;5029821;28;20076;-65
2024/01/12 05:28:34;;;;;;;57.17;15.90;;;;;;;;;;5029954;28;20029;-64
2024/01/12 05:30:59;;;;;;;54.57;17.33;;;;;;;;;;5028973;28;20462;-65
2024/01/12 05:33:25;;;;;;;52.00;15.67;;;;;;;;;;5029280;28;20031;-65
2024/01/12 05:35:50;;;;;;;51.60;16.77;;;;;;;;;;5029474;28;20033;-65
2024/01/12 05:38:15;;;;;;;55.97;16.80;;;;;;;;;;5031892;28;20048;-65
2024/01/12 05:40:40;;;;;;;56.93;16.57;;;;;;;;;;5032138;28;20045;-63
2024/01/12 05:43:06;;;;;;;46.13;15.73;;;;;;;;;;5033162;28;20060;-62
2024/01/12 05:45:31;;;;;;;51.10;15.63;;;;;;;;;;5033695;28;20037;-63
2024/01/12 05:47:56;;;;;;;46.67;15.63;;;;;;;;;;5034041;28;20601;-62
2024/01/12 05:50:21;;;;;;;51.37;17.03;;;;;;;;;;5032898;28;20030;-62
2024/01/12 05:52:47;;;;;;;51.97;15.43;;;;;;;;;;5033204;28;20108;-63
2024/01/12 05:55:12;;;;;;;48.20;15.90;;;;;;;;;;5033984;28;20032;-62
2024/01/12 05:57:38;;;;;;;48.53;15.20;;;;;;;;;;5032473;28;20029;-62
2024/01/12 06:00:04;;;;;;;54.63;16.17;;;;;;;;;;5031728;28;20166;-61
2024/01/12 06:02:29;;;;;;;48.80;15.53;;;;;;;;;;5032026;28;20035;-61
2024/01/12 06:04:54;;;;;;;60.00;17.43;;;;;;;;;;5033510;28;20108;-62
2024/01/12 06:07:19;;;;;;;56.27;17.53;;;;;;;;;;5033051;28;20014;-62
2024/01/12 06:09:45;;;;;;;47.90;15.73;;;;;;;;;;5029364;28;20136;-62
2024/01/12 06:12:11;;;;;;;54.03;16.40;;;;;;;;;;5033060;28;20025;-62
2024/01/12 06:14:36;;;;;;;54.50;17.07;;;;;;;;;;5032287;28;20025;-62
2024/01/12 06:17:01;;;;;;;52.87;16.23;;;;;;;;;;5032865;28;20465;-63
2024/01/12 06:19:27;;;;;;;47.60;15.80;;;;;;;;;;5028804;28;20095;-63
2024/01/12 06:21:52;;;;;;;56.93;17.17;;;;;;;;;;5033317;28;20052;-63
2024/01/12 06:24:17;;;;;;;64.03;18.47;;;;;;;;;;5032595;28;20027;-63
2024/01/12 06:26:42;;;;;;;51.00;16.73;;;;;;;;;;5032398;28;20025;-64
2024/01/12 06:29:08;;;;;;;45.87;14.50;;;;;;;;;;5032954;28;20017;-63
2024/01/12 06:31:33;;;;;;;48.13;16.30;;;;;;;;;;5032568;28;20014;-63
2024/01/12 06:33:58;;;;;;;47.40;16.47;;;;;;;;;;5033445;28;20076;-63
2024/01/12 06:36:23;;;;;;;43.53;15.87;;;;;;;;;;5032981;28;20065;-63
2024/01/12 06:38:49;;;;;;;46.10;14.70;;;;;;;;;;5031470;28;20041;-63
2024/01/12 06:41:14;;;;;;;42.00;12.33;;;;;;;;;;5030971;28;20111;-63
2024/01/12 06:43:39;;;;;;;36.73;13.40;;;;;;;;;;5032939;28;20021;-63
2024/01/12 06:46:07;;;;;;;43.50;14.37;;;;;;;;;;5032744;28;20029;-63
2024/01/12 06:48:34;;;;;;;36.03;12.37;;;;;;;;;;5031814;28;20034;-63
2024/01/12 06:50:59;;;;;;;45.33;13.67;;;;;;;;;;5032306;28;20070;-66
2024/01/12 06:53:24;;;;;;;33.97;10.67;;;;;;;;;;5032051;28;20112;-66
2024/01/12 06:55:50;;;;;;;37.50;13.07;;;;;;;;;;5029279;28;20183;-65
2024/01/12 06:58:15;;;;;;;44.60;12.90;;;;;;;;;;5031139;28;20021;-66
2024/01/12 07:00:40;;;;;;;37.10;12.27;;;;;;;;;;5032165;28;20092;-66
2024/01/12 07:03:06;;;;;;;38.33;12.77;;;;;;;;;;5032660;28;20055;-66
2024/01/12 07:05:31;;;;;;;33.57;12.93;;;;;;;;;;5032541;28;20056;-65
2024/01/12 07:07:56;;;;;;;34.67;11.63;;;;;;;;;;5030801;28;20040;-66
2024/01/12 07:10:22;;;;;;;34.13;11.47;;;;;;;;;;5032728;28;20444;-66
2024/01/12 07:12:47;;;;;;;45.07;14.20;;;;;;;;;;5031799;28;20025;-66
2024/01/12 07:15:13;;;;;;;41.67;12.93;;;;;;;;;;5030162;28;20057;-66
2024/01/12 07:17:38;;;;;;;38.00;12.93;;;;;;;;;;5029703;28;20030;-65
2024/01/12 07:20:03;;;;;;;39.50;14.23;;;;;;;;;;5032266;28;20060;-65
2024/01/12 07:22:29;;;;;;;36.97;12.90;;;;;;;;;;5031694;28;20033;-66
2024/01/12 07:24:54;;;;;;;37.80;14.40;;;;;;;;;;5031176;28;20033;-66
2024/01/12 07:27:19;;;;;;;43.50;15.07;;;;;;;;;;5030269;28;20022;-64
2024/01/12 07:29:44;;;;;;;42.07;13.93;;;;;;;;;;5030337;28;20064;-66
2024/01/12 07:32:10;;;;;;;44.10;13.73;;;;;;;;;;5031965;28;20474;-65
2024/01/12 07:34:35;;;;;;;42.23;14.43;;;;;;;;;;5014586;28;20029;-66
2024/01/12 07:37:01;;;;;;;43.93;14.27;;;;;;;;;;5028764;28;20029;-65
2024/01/12 07:39:26;;;;;;;43.33;15.00;;;;;;;;;;5030284;28;20112;-66
2024/01/12 07:41:51;;;;;;;39.43;13.93;;;;;;;;;;5031377;28;20037;-65
2024/01/12 07:44:17;;;;;;;39.10;13.93;;;;;;;;;;5028822;28;20100;-65
2024/01/12 07:46:43;;;;;;;36.90;13.73;;;;;;;;;;5031522;28;20017;-65
2024/01/12 07:49:08;;;;;;;39.30;13.90;;;;;;;;;;5031203;28;20029;-66
2024/01/12 07:51:33;;;;;;;35.13;13.70;;;;;;;;;;5031731;28;20100;-66
2024/01/12 07:53:58;;;;;;;48.40;15.67;;;;;;;;;;5031190;28;20036;-66
2024/01/12 07:56:24;;;;;;;50.50;15.33;;;;;;;;;;5031512;28;20017;-66
2024/01/12 07:58:49;;;;;;;40.30;14.57;;;;;;;;;;5031549;28;20040;-66
2024/01/12 08:01:15;;;;;;;41.53;16.00;;;;;;;;;;5031384;28;20033;-63
2024/01/12 08:03:41;;;;;;;54.83;17.83;;;;;;;;;;5032097;28;20474;-63
2024/01/12 08:06:06;;;;;;;43.67;17.07;;;;;;;;;;5031130;28;20031;-63
2024/01/12 08:08:31;;;;;;;53.03;17.73;;;;;;;;;;5029764;28;20381;-63
2024/01/12 08:10:57;;;;;;;60.33;19.00;;;;;;;;;;5030586;28;20030;-63
2024/01/12 08:13:22;;;;;;;54.53;19.07;;;;;;;;;;5030201;28;20017;-63
2024/01/12 08:15:48;;;;;;;52.60;19.37;;;;;;;;;;5030702;28;20486;-63
2024/01/12 08:18:13;;;;;;;55.67;19.60;;;;;;;;;;5031605;28;20052;-64
2024/01/12 08:20:39;;;;;;;58.60;18.70;;;;;;;;;;5030781;28;20494;-63
2024/01/12 08:23:04;;;;;;;62.17;20.40;;;;;;;;;;5031512;28;20036;-63
2024/01/12 08:25:29;;;;;;;57.70;21.37;;;;;;;;;;5026510;28;20031;-62
2024/01/12 08:27:54;;;;;;;59.50;20.73;;;;;;;;;;5031505;28;20169;-63
2024/01/12 08:30:20;;;;;;;57.97;21.57;;;;;;;;;;5030626;28;20060;-63
2024/01/12 08:32:45;;;;;;;62.30;20.57;;;;;;;;;;5031097;28;20025;-63
2024/01/12 08:35:10;;;;;;;60.80;21.47;;;;;;;;;;5028515;28;20069;-64
2024/01/12 08:37:35;;;;;;;66.13;23.27;;;;;;;;;;5027423;28;20091;-63
2024/01/12 08:40:01;;;;;;;69.73;25.33;;;;;;;;;;5029686;28;20037;-63
2024/01/12 08:42:26;;;;;;;74.17;25.03;;;;;;;;;;5030460;28;20056;-64
2024/01/12 08:44:51;;;;;;;68.33;24.20;;;;;;;;;;5031029;28;20072;-64
2024/01/12 08:47:19;;;;;;;59.50;22.90;;;;;;;;;;5027461;28;20032;-64
2024/01/12 08:49:44;;;;;;;63.70;24.07;;;;;;;;;;5030715;28;20022;-63
2024/01/12 08:52:10;;;;;;;55.57;21.27;;;;;;;;;;5029628;28;20032;-63
2024/01/12 08:54:35;;;;;;;64.03;23.63;;;;;;;;;;5030059;28;20079;-63
2024/01/12 08:57:00;;;;;;;55.53;24.50;;;;;;;;;;5029148;28;20033;-64
2024/01/12 08:59:27;;;;;;;56.87;21.57;;;;;;;;;;5030899;28;20040;-63
2024/01/12 09:01:52;;;;;;;54.87;21.20;;;;;;;;;;5030881;28;20090;-64
2024/01/12 09:04:18;;;;;;;51.57;19.07;;;;;;;;;;5029574;28;20116;-64
2024/01/12 09:06:43;;;;;;;48.60;18.80;;;;;;;;;;5030257;28;20437;-63
2024/01/12 09:09:08;;;;;;;47.40;20.17;;;;;;;;;;5029703;28;20099;-63
2024/01/12 09:11:33;;;;;;;48.90;18.20;;;;;;;;;;5028696;28;20021;-66
2024/01/12 09:13:59;;;;;;;51.33;17.73;;;;;;;;;;5030086;28;20041;-66
2024/01/12 09:16:24;;;;;;;49.10;18.23;;;;;;;;;;5030012;28;20029;-66
2024/01/12 09:18:49;;;;;;;52.50;17.63;;;;;;;;;;5030172;28;20062;-65
2024/01/12 09:21:15;;;;;;;62.10;19.77;;;;;;;;;;5029644;28;20033;-65
2024/01/12 09:23:42;;;;;;;52.30;18.80;;;;;;;;;;5028297;28;20466;-66
2024/01/12 09:26:09;;;;;;;53.87;17.70;;;;;;;;;;5029837;28;20416;-65
2024/01/12 09:28:35;;;;;;;48.70;16.80;;;;;;;;;;5029685;28;20017;-66
2024/01/12 09:31:00;;;;;;;49.23;18.50;;;;;;;;;;5029850;28;20016;-66
2024/01/12 09:33:25;;;;;;;43.93;14.77;;;;;;;;;;5030404;28;20025;-65
2024/01/12 09:35:50;;;;;;;41.27;14.47;;;;;;;;;;5029826;28;20052;-65
2024/01/12 09:38:16;;;;;;;39.40;14.63;;;;;;;;;;5029442;28;20123;-66
2024/01/12 09:40:41;;;;;;;48.43;14.93;;;;;;;;;;5029731;28;20037;-66
2024/01/12 09:43:10;;;;;;;42.33;15.47;;;;;;;;;;5029255;28;20068;-66
2024/01/12 09:45:36;;;;;;;37.87;12.90;;;;;;;;;;5029460;28;20083;-66
2024/01/12 09:48:01;;;;;;;36.53;13.43;;;;;;;;;;5030437;28;20033;-65
2024/01/12 09:50:27;;;;;;;40.07;15.40;;;;;;;;;;5029071;28;20071;-65
2024/01/12 09:52:52;;;;;;;44.57;14.80;;;;;;;;;;5028849;28;20033;-65
2024/01/12 09:55:17;;;;;;;44.70;14.97;;;;;;;;;;5029518;28;20033;-65
2024/01/12 09:57:46;;;;;;;49.10;15.67;;;;;;;;;;5027903;28;20026;-65
2024/01/12 10:00:13;;;;;;;40.53;14.17;;;;;;;;;;5028019;28;20148;-65
2024/01/12 10:02:38;;;;;;;49.23;14.40;;;;;;;;;;5027124;28;20040;-65
2024/01/12 10:05:04;;;;;;;38.07;10.87;;;;;;;;;;5026980;28;20466;-65
2024/01/12 10:07:29;;;;;;;42.27;14.13;;;;;;;;;;5029720;28;20013;-65
2024/01/12 10:09:54;;;;;;;42.13;12.87;;;;;;;;;;5030380;28;20021;-66
2024/01/12 10:12:20;;;;;;;40.53;13.83;;;;;;;;;;5028675;28;20028;-66
2024/01/12 10:14:45;;;;;;;44.97;14.50;;;;;;;;;;5026801;28;20052;-65
2024/01/12 10:17:11;;;;;;;37.67;13.40;;;;;;;;;;5029331;28;20033;-64
2024/01/12 10:19:36;;;;;;;38.03;13.60;;;;;;;;;;5029016;28;20049;-66
2024/01/12 10:22:02;;;;;;;36.33;12.83;;;;;;;;;;5029403;28;20048;-65
2024/01/12 10:24:28;;;;;;;37.27;13.00;;;;;;;;;;5032051;28;20030;-65
2024/01/12 10:26:53;;;;;;;38.07;13.53;;;;;;;;;;5032823;28;20112;-65
2024/01/12 10:29:18;;;;;;;42.57;13.33;;;;;;;;;;5033303;28;20116;-65
2024/01/12 10:31:44;;;;;;;39.77;14.13;;;;;;;;;;5033170;28;20040;-65
2024/01/12 10:34:13;;;;;;;36.60;11.17;;;;;;;;;;5032165;28;20028;-65
2024/01/12 10:36:39;;;;;;;42.53;13.40;;;;;;;;;;5033039;28;20037;-65
2024/01/12 10:39:06;;;;;;;37.97;12.37;;;;;;;;;;5033205;28;20038;-65
2024/01/12 10:41:33;;;;;;;37.00;12.80;;;;;;;;;;5032993;28;20021;-65
2024/01/12 10:43:59;;;;;;;35.33;13.20;;;;;;;;;;5032711;28;20421;-66
2024/01/12 10:46:30;;;;;;;35.27;12.93;;;;;;;;;;5029509;28;20029;-66
2024/01/12 10:49:08;;;;;;;42.45;13.75;;;;;;;;;;5032909;28;20037;-66
2024/01/12 10:51:36;;;;;;;40.40;13.37;;;;;;;;;;5031117;28;20137;-65
2024/01/12 10:54:08;;;;;;;34.80;13.07;;;;;;;;;;5032991;28;20029;-65
2024/01/12 10:56:35;;;;;;;;;;;;;;;;;;5032679;28;20052;-65
2024/01/12 10:59:01;;;;;;;34.53;11.80;;;;;;;;;;5033287;28;20276;-66
2024/01/12 11:01:26;;;;;;;38.37;12.77;;;;;;;;;;5033118;28;20026;-66
2024/01/12 11:03:52;;;;;;;39.93;14.53;;;;;;;;;;5030706;28;20413;-66
2024/01/12 11:06:18;;;;;;;38.10;13.70;;;;;;;;;;5032861;28;20025;-65
2024/01/12 11:08:46;;;;;;;45.60;14.50;;;;;;;;;;5033106;28;20769;-66
2024/01/12 11:11:14;;;;;;;40.60;13.10;;;;;;;;;;5033166;28;20435;-65
2024/01/12 11:13:39;;;;;;;42.37;14.37;;;;;;;;;;5032135;28;20497;-65
2024/01/12 11:16:05;;;;;;;38.37;13.67;;;;;;;;;;5032963;28;20032;-65
2024/01/12 11:18:31;;;;;;;44.70;14.07;;;;;;;;;;5032886;28;20027;-65
2024/01/12 11:21:00;;;;;;;44.60;14.47;;;;;;;;;;5032338;28;20048;-65
2024/01/12 11:23:26;;;;;;;46.43;15.13;;;;;;;;;;5032313;28;20021;-65
2024/01/12 11:25:52;;;;;;;40.67;14.47;;;;;;;;;;5031393;28;20029;-65
2024/01/12 11:28:17;;;;;;;42.80;14.90;;;;;;;;;;5030508;28;20040;-65
2024/01/12 11:30:43;;;;;;;39.77;14.63;;;;;;;;;;5031119;28;20022;-65
2024/01/12 11:33:08;;;;;;;38.20;13.77;;;;;;;;;;5030923;28;20755;-64
2024/01/12 11:35:35;;;;;;;39.40;14.50;;;;;;;;;;5031077;28;20021;-64
2024/01/12 11:38:08;;;;;;;49.87;15.80;;;;;;;;;;5031362;28;20028;-63
2024/01/12 11:40:34;;;;;;;49.00;16.23;;;;;;;;;;5031904;28;20362;-64
2024/01/12 11:43:00;;;;;;;47.80;14.37;;;;;;;;;;5031685;28;20029;-64
2024/01/12 11:45:25;;;;;;;41.97;14.87;;;;;;;;;;5031264;28;20025;-64
2024/01/12 11:47:50;;;;;;;42.80;14.90;;;;;;;;;;5031851;28;20040;-65
2024/01/12 11:50:16;;;;;;;47.67;15.63;;;;;;;;;;5030615;28;20017;-64
2024/01/12 11:52:41;;;;;;;52.27;15.37;;;;;;;;;;5031408;28;20401;-64
2024/01/12 11:55:08;;;;;;;50.17;16.83;;;;;;;;;;5031872;28;20040;-64
2024/01/12 11:57:34;;;;;;;42.47;14.80;;;;;;;;;;5030815;28;20035;-64
2024/01/12 11:59:59;;;;;;;54.30;16.27;;;;;;;;;;5030100;28;20025;-64
2024/01/12 12:02:25;;;;;;;49.93;18.40;;;;;;;;;;5031525;28;20028;-64
2024/01/12 12:04:54;;;;;;;46.87;16.97;;;;;;;;;;5030880;28;20533;-64
2024/01/12 12:07:22;;;;;;;53.30;14.87;;;;;;;;;;5030523;28;20072;-64
2024/01/12 12:09:48;;;;;;;47.77;16.20;;;;;;;;;;5030845;28;20010;-64
2024/01/12 12:12:13;;;;;;;48.53;17.13;;;;;;;;;;5031225;28;20436;-64
2024/01/12 12:14:53;;;;;;;45.70;16.10;;;;;;;;;;5030717;28;20416;-64
2024/01/12 12:17:19;;;;;;;41.03;14.43;;;;;;;;;;5028899;28;20025;-64
2024/01/12 12:19:44;;;;;;;47.53;15.40;;;;;;;;;;5030661;28;20409;-65
2024/01/12 12:22:09;;;;;;;44.07;13.60;;;;;;;;;;5030996;28;20496;-64
2024/01/12 12:24:34;;;;;;;48.67;15.77;;;;;;;;;;5030213;28;20040;-65
2024/01/12 12:27:00;;;;;;;56.03;17.00;;;;;;;;;;5030667;28;20030;-65
2024/01/12 12:29:27;;;;;;;56.00;16.83;;;;;;;;;;5031151;28;20386;-64
2024/01/12 12:31:52;;;;;;;49.20;17.33;;;;;;;;;;5028924;28;20025;-64
2024/01/12 12:34:17;;;;;;;46.03;16.33;;;;;;;;;;5030600;28;20621;-65
2024/01/12 12:36:43;;;;;;;52.53;16.13;;;;;;;;;;5029444;28;20047;-64
2024/01/12 12:39:09;;;;;;;49.90;16.03;;;;;;;;;;5026860;28;20080;-64
2024/01/12 12:41:35;;;;;;;51.40;16.07;;;;;;;;;;5030593;28;20024;-65
2024/01/12 12:44:01;;;;;;;45.03;14.30;;;;;;;;;;5030532;28;20025;-66
2024/01/12 12:46:27;;;;;;;48.47;15.07;;;;;;;;;;5027294;28;20034;-66
2024/01/12 12:48:56;;;;;;;40.63;13.10;;;;;;;;;;5029896;28;20017;-66
2024/01/12 12:51:21;;;;;;;48.17;16.30;;;;;;;;;;5029994;28;20018;-66
2024/01/12 12:53:46;;;;;;;44.23;15.30;;;;;;;;;;5030294;28;20032;-66
2024/01/12 12:56:11;;;;;;;55.37;16.33;;;;;;;;;;5029058;28;20486;-66
2024/01/12 12:58:37;;;;;;;53.20;16.37;;;;;;;;;;5029576;28;20557;-66
2024/01/12 13:01:02;;;;;;;45.77;14.00;;;;;;;;;;5028521;28;20052;-66
2024/01/12 13:03:27;;;;;;;42.70;14.80;;;;;;;;;;5030727;28;20474;-65
2024/01/12 13:05:52;;;;;;;45.10;14.07;;;;;;;;;;5028923;28;20018;-66
2024/01/12 13:08:19;;;;;;;45.07;14.97;;;;;;;;;;5029364;28;20018;-67
2024/01/12 13:10:44;;;;;;;51.93;15.53;;;;;;;;;;5026933;28;20491;-67
2024/01/12 13:13:09;;;;;;;53.80;16.33;;;;;;;;;;5030087;28;20053;-67
2024/01/12 13:15:35;;;;;;;43.77;15.87;;;;;;;;;;5029894;28;20049;-67
2024/01/12 13:18:00;;;;;;;50.60;16.37;;;;;;;;;;5030539;28;20030;-67
2024/01/12 13:20:26;;;;;;;49.50;16.50;;;;;;;;;;5028033;28;20049;-67
2024/01/12 13:22:51;;;;;;;43.43;14.23;;;;;;;;;;5023373;28;20032;-66
2024/01/12 13:25:17;;;;;;;46.30;14.93;;;;;;;;;;5030279;28;20037;-68
2024/01/12 13:27:42;;;;;;;51.40;15.17;;;;;;;;;;5029135;28;20018;-68
2024/01/12 13:30:08;;;;;;;48.47;14.67;;;;;;;;;;5029719;28;20036;-60
2024/01/12 13:32:34;;;;;;;44.20;14.80;;;;;;;;;;5028923;28;20032;-59
2024/01/12 13:34:59;;;;;;;42.93;14.13;;;;;;;;;;5028545;28;20026;-60
2024/01/12 13:37:24;;;;;;;43.77;13.80;;;;;;;;;;5029407;28;20052;-67
2024/01/12 13:39:49;;;;;;;50.33;15.90;;;;;;;;;;5030702;28;20033;-71
2024/01/12 13:42:15;;;;;;;39.93;13.73;;;;;;;;;;5030072;28;20017;-68
2024/01/12 13:44:40;;;;;;;45.50;13.90;;;;;;;;;;5029705;28;20489;-67
2024/01/12 13:47:06;;;;;;;43.80;12.73;;;;;;;;;;5029416;28;20022;-66
2024/01/12 13:49:31;;;;;;;46.77;14.97;;;;;;;;;;5029560;28;20493;-67
2024/01/12 13:51:56;;;;;;;46.20;14.70;;;;;;;;;;5029150;28;20028;-66
2024/01/12 13:54:21;;;;;;;44.23;15.13;;;;;;;;;;5029917;28;21074;-66
2024/01/12 13:56:47;;;;;;;42.10;14.20;;;;;;;;;;5030073;28;20021;-66
2024/01/12 13:59:12;;;;;;;42.83;13.30;;;;;;;;;;5032430;28;20466;-67
2024/01/12 14:01:38;;;;;;;46.53;14.43;;;;;;;;;;5032589;28;20040;-66
2024/01/12 14:04:05;;;;;;;40.93;13.73;;;;;;;;;;5033420;28;20059;-66
2024/01/12 14:06:33;;;;;;;42.27;14.37;;;;;;;;;;5031479;28;20165;-66